createdAt,value
2023-10-18T00:00:44.949Z,7.68
2023-10-18T00:03:35.620Z,7.40
2023-10-18T00:06:23.816Z,7.75
2023-10-18T00:09:28.308Z,8.15
2023-10-18T00:12:18.017Z,8.07
2023-10-18T00:15:03.867Z,7.75
2023-10-18T00:17:50.673Z,7.97
2023-10-18T00:20:36.918Z,7.97
2023-10-18T00:23:23.644Z,8.18
2023-10-18T00:26:11.158Z,8.60
2023-10-18T00:28:57.070Z,8.15
2023-10-18T00:31:42.764Z,8.35
2023-10-18T00:34:29.564Z,9.07
2023-10-18T00:37:18.057Z,8.75
2023-10-18T00:40:08.740Z,9.23
2023-10-18T00:42:54.848Z,9.02
2023-10-18T00:45:45.535Z,9.95
2023-10-18T00:48:31.871Z,9.75
2023-10-18T00:51:20.429Z,10.65
2023-10-18T00:54:11.871Z,9.75
2023-10-18T00:56:59.497Z,9.75
2023-10-18T00:59:45.421Z,10.07
2023-10-18T01:02:31.452Z,9.45
2023-10-18T01:05:17.333Z,9.70
2023-10-18T01:08:08.358Z,9.48
2023-10-18T01:10:58.605Z,9.40
2023-10-18T01:13:44.668Z,8.50
2023-10-18T01:16:32.746Z,9.07
2023-10-18T01:19:19.659Z,8.93
2023-10-18T01:22:07.412Z,9.13
2023-10-18T01:24:53.960Z,9.00
2023-10-18T01:27:39.821Z,8.90
2023-10-18T01:30:26.029Z,8.43
2023-10-18T01:33:12.061Z,9.63
2023-10-18T01:35:57.685Z,9.77
2023-10-18T01:38:53.437Z,9.25
2023-10-18T01:41:39.315Z,10.10
2023-10-18T01:44:40.190Z,9.60
2023-10-18T01:47:26.270Z,9.23
2023-10-18T01:50:12.672Z,9.38
2023-10-18T01:53:00.690Z,9.45
2023-10-18T01:55:54.765Z,9.70
2023-10-18T01:58:40.771Z,9.35
2023-10-18T02:01:27.337Z,9.00
2023-10-18T02:04:35.853Z,9.75
2023-10-18T02:07:30.432Z,8.63
2023-10-18T02:10:24.655Z,8.93
2023-10-18T02:13:15.263Z,7.95
2023-10-18T02:16:01.189Z,8.05
2023-10-18T02:18:51.727Z,7.85
2023-10-18T02:21:37.376Z,8.07
2023-10-18T02:24:24.663Z,7.53
2023-10-18T02:27:16.673Z,7.30
2023-10-18T02:30:02.440Z,7.93
2023-10-18T02:32:49.553Z,7.93
2023-10-18T02:35:42.018Z,6.85
2023-10-18T02:38:27.994Z,7.82
2023-10-18T02:41:16.697Z,7.07
2023-10-18T02:44:04.328Z,6.82
2023-10-18T02:46:55.688Z,6.38
2023-10-18T02:49:41.730Z,7.38
2023-10-18T02:52:31.653Z,6.40
2023-10-18T02:55:20.827Z,7.40
2023-10-18T02:58:08.207Z,6.82
2023-10-18T03:00:54.171Z,6.78
2023-10-18T03:03:41.228Z,6.60
2023-10-18T03:06:29.558Z,6.80
2023-10-18T03:09:35.832Z,6.63
2023-10-18T03:12:23.407Z,6.82
2023-10-18T03:15:10.582Z,7.10
2023-10-18T03:17:57.532Z,6.80
2023-10-18T03:20:43.416Z,6.20
2023-10-18T03:23:32.400Z,6.13
2023-10-18T03:26:34.758Z,6.55
2023-10-18T03:29:22.086Z,6.05
2023-10-18T03:32:09.247Z,5.68
2023-10-18T03:34:55.505Z,6.32
2023-10-18T03:37:42.320Z,6.40
2023-10-18T03:40:30.975Z,6.68
2023-10-18T03:43:17.830Z,6.20
2023-10-18T03:46:37.063Z,6.38
2023-10-18T03:49:31.845Z,6.75
2023-10-18T03:52:18.502Z,6.55
2023-10-18T03:55:05.443Z,6.15
2023-10-18T03:57:55.706Z,6.53
2023-10-18T04:00:48.280Z,6.28
2023-10-18T04:03:36.332Z,6.20
2023-10-18T04:06:29.597Z,6.63
2023-10-18T04:09:17.546Z,6.35
2023-10-18T04:12:05.705Z,6.28
2023-10-18T04:14:56.971Z,6.82
2023-10-18T04:17:43.990Z,5.97
2023-10-18T04:20:35.689Z,5.80
2023-10-18T04:23:27.529Z,6.15
2023-10-18T04:26:23.170Z,6.57
2023-10-18T04:29:11.994Z,6.13
2023-10-18T04:31:57.951Z,5.97
2023-10-18T04:34:45.372Z,5.97
2023-10-18T04:37:31.716Z,6.25
2023-10-18T04:40:29.819Z,5.72
2023-10-18T04:43:19.977Z,6.38
2023-10-18T04:46:15.999Z,6.32
2023-10-18T04:49:02.410Z,6.60
2023-10-18T04:51:50.171Z,6.35
2023-10-18T04:54:37.478Z,5.95
2023-10-18T04:57:23.680Z,5.80
2023-10-18T05:00:26.498Z,5.95
2023-10-18T05:03:14.806Z,6.05
2023-10-18T05:06:02.082Z,5.63
2023-10-18T05:08:50.030Z,6.22
2023-10-18T05:11:47.348Z,6.47
2023-10-18T05:17:37.203Z,5.78
2023-10-18T05:20:32.341Z,5.75
2023-10-18T05:23:28.393Z,6.20
2023-10-18T05:26:25.419Z,6.00
2023-10-18T05:29:18.875Z,6.20
2023-10-18T05:35:13.339Z,6.13
2023-10-18T05:37:59.538Z,6.30
2023-10-18T05:40:56.928Z,6.45
2023-10-18T05:43:44.450Z,6.20
2023-10-18T05:46:35.375Z,6.78
2023-10-18T05:49:30.099Z,6.63
2023-10-18T05:52:17.096Z,6.78
2023-10-18T05:55:04.303Z,7.13
2023-10-18T05:57:51.302Z,6.97
2023-10-18T06:00:37.450Z,6.95
2023-10-18T06:03:27.518Z,7.03
2023-10-18T06:06:13.672Z,6.97
2023-10-18T06:08:59.832Z,7.28
2023-10-18T06:11:49.465Z,7.63
2023-10-18T06:14:42.112Z,7.35
2023-10-18T06:17:28.292Z,7.75
2023-10-18T06:20:31.172Z,8.20
2023-10-18T06:23:25.658Z,8.38
2023-10-18T06:26:30.706Z,8.32
2023-10-18T06:29:23.836Z,8.98
2023-10-18T06:32:14.363Z,8.85
2023-10-18T06:35:05.740Z,9.15
2023-10-18T06:37:51.574Z,9.73
2023-10-18T06:41:07.415Z,9.70
2023-10-18T06:43:56.038Z,10.23
2023-10-18T06:46:45.419Z,9.75
2023-10-18T06:49:31.250Z,10.32
2023-10-18T06:52:20.028Z,11.27
2023-10-18T06:55:06.789Z,11.40
2023-10-18T06:57:58.110Z,11.07
2023-10-18T07:00:54.813Z,11.18
2023-10-18T07:03:44.356Z,12.15
2023-10-18T07:06:37.281Z,11.60
2023-10-18T07:09:37.912Z,12.15
2023-10-18T07:12:45.277Z,12.13
2023-10-18T07:15:35.573Z,12.27
2023-10-18T07:18:22.196Z,12.32
2023-10-18T07:21:08.261Z,11.80
2023-10-18T07:23:54.925Z,12.52
2023-10-18T07:26:40.976Z,12.13
2023-10-18T07:29:30.282Z,12.23
2023-10-18T07:32:16.721Z,13.40
2023-10-18T07:35:02.200Z,12.05
2023-10-18T07:37:48.074Z,12.95
2023-10-18T07:40:42.110Z,12.52
2023-10-18T07:43:28.364Z,12.95
2023-10-18T07:46:20.512Z,13.32
2023-10-18T07:49:16.848Z,13.07
2023-10-18T07:52:02.978Z,13.18
2023-10-18T07:54:49.981Z,12.90
2023-10-18T07:57:47.876Z,13.52
2023-10-18T08:00:36.672Z,12.75
2023-10-18T08:03:22.825Z,13.13
2023-10-18T08:06:17.384Z,13.63
2023-10-18T08:09:06.678Z,13.35
2023-10-18T08:11:53.577Z,12.90
2023-10-18T08:14:39.842Z,13.25
2023-10-18T08:17:31.608Z,14.45
2023-10-18T08:20:23.781Z,13.93
2023-10-18T08:23:35.790Z,15.10
2023-10-18T08:26:21.949Z,14.13
2023-10-18T08:29:08.319Z,14.57
2023-10-18T08:32:06.025Z,14.77
2023-10-18T08:34:51.835Z,14.63
2023-10-18T08:37:39.399Z,14.48
2023-10-18T08:40:34.685Z,13.73
2023-10-18T08:43:31.527Z,12.23
2023-10-18T08:46:18.802Z,13.02
2023-10-18T08:49:09.038Z,12.73
2023-10-18T08:52:12.718Z,13.05
2023-10-18T08:55:25.502Z,13.90
2023-10-18T08:58:21.699Z,14.23
2023-10-18T09:01:12.405Z,14.43
2023-10-18T09:03:58.932Z,14.82
2023-10-18T09:06:45.727Z,12.38
2023-10-18T09:09:36.965Z,12.30
2023-10-18T09:12:45.459Z,13.13
2023-10-18T09:15:48.886Z,12.75
2023-10-18T09:18:43.493Z,13.65
2023-10-18T09:21:37.467Z,13.20
2023-10-18T09:24:32.236Z,13.15
2023-10-18T09:27:18.195Z,13.43
2023-10-18T09:30:05.375Z,13.77
2023-10-18T09:32:51.144Z,11.25
2023-10-18T09:35:36.759Z,11.43
2023-10-18T09:38:23.219Z,10.77
2023-10-18T09:41:09.387Z,10.07
2023-10-18T09:43:57.055Z,10.13
2023-10-18T09:46:43.712Z,10.32
2023-10-18T09:49:32.653Z,9.65
2023-10-18T09:52:19.601Z,11.25
2023-10-18T09:55:08.939Z,10.80
2023-10-18T09:58:12.930Z,10.43
2023-10-18T10:03:51.938Z,10.60
2023-10-18T10:06:46.536Z,12.35
2023-10-18T10:09:39.996Z,12.63
2023-10-18T10:12:28.842Z,12.32
2023-10-18T10:15:15.199Z,13.10
2023-10-18T10:18:02.948Z,12.98
2023-10-18T10:20:49.103Z,12.68
2023-10-18T10:23:36.767Z,12.68
2023-10-18T10:26:33.664Z,13.80
2023-10-18T10:29:26.100Z,12.77
2023-10-18T10:32:17.186Z,12.75
2023-10-18T10:35:25.464Z,13.65
2023-10-18T10:38:20.176Z,13.90
2023-10-18T10:41:32.088Z,13.50
2023-10-18T10:44:33.838Z,14.05
2023-10-18T10:47:30.854Z,13.55
2023-10-18T10:50:53.652Z,14.98
2023-10-18T10:53:46.566Z,15.20
2023-10-18T10:59:24.081Z,15.32
2023-10-18T11:02:10.166Z,14.95
2023-10-18T11:05:02.025Z,15.15
2023-10-18T11:07:48.345Z,15.25
2023-10-18T11:10:40.972Z,15.40
2023-10-18T11:13:27.060Z,14.90
2023-10-18T11:16:13.219Z,14.93
2023-10-18T11:19:01.442Z,15.15
2023-10-18T11:21:52.917Z,15.98
2023-10-18T11:26:17.377Z,16.00
2023-10-18T11:30:48.413Z,16.13
2023-10-18T11:33:57.345Z,15.75
2023-10-18T11:36:43.708Z,14.50
2023-10-18T11:39:35.840Z,14.18
2023-10-18T11:42:21.764Z,15.05
2023-10-18T11:45:08.081Z,14.07
2023-10-18T11:47:53.958Z,13.88
2023-10-18T11:50:46.563Z,15.35
2023-10-18T11:53:33.919Z,13.15
2023-10-18T11:56:21.021Z,13.43
2023-10-18T11:59:07.102Z,14.43
2023-10-18T12:02:08.281Z,13.43
2023-10-18T12:04:54.444Z,13.45
2023-10-18T12:07:46.047Z,14.00
2023-10-18T12:10:37.453Z,14.15
2023-10-18T12:13:23.527Z,13.52
2023-10-18T12:16:10.605Z,14.00
2023-10-18T12:18:56.584Z,12.95
2023-10-18T12:21:49.787Z,13.65
2023-10-18T12:24:36.194Z,13.45
2023-10-18T12:27:37.074Z,13.95
2023-10-18T12:30:32.700Z,13.60
2023-10-18T12:33:26.776Z,14.77
2023-10-18T12:36:23.624Z,12.82
2023-10-18T12:39:14.166Z,14.45
2023-10-18T12:42:00.183Z,13.68
2023-10-18T12:44:47.387Z,14.32
2023-10-18T12:47:33.645Z,14.48
2023-10-18T12:50:20.585Z,14.85
2023-10-18T12:53:19.257Z,14.32
2023-10-18T12:56:34.256Z,14.50
2023-10-18T12:59:26.719Z,14.48
2023-10-18T13:02:32.455Z,14.93
2023-10-18T13:05:20.158Z,14.48
2023-10-18T13:08:17.149Z,15.68
2023-10-18T13:11:06.236Z,15.27
2023-10-18T13:13:52.055Z,14.27
2023-10-18T13:16:37.753Z,13.63
2023-10-18T13:19:25.430Z,14.68
2023-10-18T13:22:19.303Z,13.57
2023-10-18T13:25:10.070Z,14.45
2023-10-18T13:27:56.305Z,13.60
2023-10-18T13:30:45.180Z,14.73
2023-10-18T13:33:31.864Z,13.00
2023-10-18T13:36:18.339Z,12.73
2023-10-18T13:39:13.060Z,12.95
2023-10-18T13:42:00.192Z,12.80
2023-10-18T13:44:46.358Z,12.10
2023-10-18T13:47:34.661Z,11.75
2023-10-18T13:50:20.752Z,12.18
2023-10-18T13:53:11.989Z,12.52
2023-10-18T13:56:01.108Z,12.70
2023-10-18T13:58:48.008Z,13.07
2023-10-18T14:01:35.989Z,13.27
2023-10-18T14:04:26.586Z,13.15
2023-10-18T14:07:12.865Z,13.35
2023-10-18T14:09:59.662Z,13.07
2023-10-18T14:12:47.676Z,13.88
2023-10-18T14:15:34.702Z,14.38
2023-10-18T14:18:20.548Z,14.80
2023-10-18T14:21:06.207Z,13.68
2023-10-18T14:24:01.357Z,13.63
2023-10-18T14:26:49.933Z,14.38
2023-10-18T14:29:35.930Z,12.55
2023-10-18T14:32:21.944Z,13.45
2023-10-18T14:35:08.460Z,13.48
2023-10-18T14:37:54.205Z,13.50
2023-10-18T14:41:00.271Z,14.77
2023-10-18T14:43:55.148Z,13.48
2023-10-18T14:46:42.516Z,15.55
2023-10-18T14:49:29.823Z,13.88
2023-10-18T14:52:20.516Z,14.75
2023-10-18T14:55:07.712Z,14.13
2023-10-18T14:57:55.409Z,14.32
2023-10-18T15:00:42.164Z,15.18
2023-10-18T15:03:29.686Z,15.32
2023-10-18T15:06:21.324Z,15.77
2023-10-18T15:09:11.440Z,16.77
2023-10-18T15:11:57.524Z,16.83
2023-10-18T15:14:43.713Z,16.45
2023-10-18T15:17:29.690Z,16.70
2023-10-18T15:20:17.817Z,16.67
2023-10-18T15:23:04.125Z,16.60
2023-10-18T15:25:50.865Z,16.10
2023-10-18T15:28:36.947Z,16.83
2023-10-18T15:31:23.380Z,16.60
2023-10-18T15:34:09.485Z,16.50
2023-10-18T15:36:55.118Z,16.25
2023-10-18T15:39:44.675Z,16.65
2023-10-18T15:42:31.067Z,15.82
2023-10-18T15:45:19.099Z,15.50
2023-10-18T15:48:05.435Z,16.10
2023-10-18T15:50:52.471Z,16.13
2023-10-18T15:53:48.965Z,16.83
2023-10-18T15:56:41.025Z,16.60
2023-10-18T15:59:33.228Z,16.02
2023-10-18T16:02:19.106Z,16.25
2023-10-18T16:05:05.675Z,15.15
2023-10-18T16:07:55.751Z,15.25
2023-10-18T16:10:42.049Z,14.32
2023-10-18T16:13:28.721Z,16.70
2023-10-18T16:16:15.155Z,16.75
2023-10-18T16:19:00.858Z,15.70
2023-10-18T16:21:46.726Z,16.58
2023-10-18T16:24:32.632Z,15.10
2023-10-18T16:27:18.871Z,18.65
2023-10-18T16:30:06.791Z,19.50
2023-10-18T16:32:56.175Z,16.65
2023-10-18T16:35:43.531Z,15.80
2023-10-18T16:38:30.994Z,15.68
2023-10-18T16:41:17.681Z,16.50
2023-10-18T16:44:04.924Z,16.13
2023-10-18T16:46:52.306Z,16.55
2023-10-18T16:49:38.680Z,16.67
2023-10-18T16:52:24.364Z,17.58
2023-10-18T16:55:12.822Z,19.60
2023-10-18T16:57:58.586Z,18.55
2023-10-18T17:00:44.567Z,18.75
2023-10-18T17:03:31.226Z,20.05
2023-10-18T17:06:17.893Z,19.05
2023-10-18T17:09:04.546Z,19.65
2023-10-18T17:11:50.956Z,19.02
2023-10-18T17:14:36.705Z,19.20
2023-10-18T17:17:23.519Z,20.52
2023-10-18T17:20:18.947Z,20.88
2023-10-18T17:23:05.459Z,21.58
2023-10-18T17:25:51.807Z,22.17
2023-10-18T17:28:38.175Z,21.35
2023-10-18T17:31:23.771Z,21.10
2023-10-18T17:34:12.800Z,21.23
2023-10-18T17:36:58.973Z,22.15
2023-10-18T17:39:44.732Z,20.40
2023-10-18T17:42:36.338Z,20.52
2023-10-18T17:45:26.834Z,20.52
2023-10-18T17:48:16.907Z,22.02
2023-10-18T17:51:10.085Z,20.70
2023-10-18T17:53:56.274Z,20.42
2023-10-18T17:56:42.313Z,20.50
2023-10-18T17:59:28.783Z,19.73
2023-10-18T18:02:14.696Z,19.50
2023-10-18T18:05:01.232Z,19.52
2023-10-18T18:07:47.218Z,19.02
2023-10-18T18:10:33.312Z,20.25
2023-10-18T18:13:26.722Z,18.70
2023-10-18T18:16:15.565Z,19.83
2023-10-18T18:19:02.041Z,19.45
2023-10-18T18:21:48.272Z,20.58
2023-10-18T18:24:34.134Z,19.88
2023-10-18T18:27:21.069Z,20.60
2023-10-18T18:30:09.417Z,20.30
2023-10-18T18:33:01.345Z,20.27
2023-10-18T18:35:47.820Z,20.60
2023-10-18T18:38:34.115Z,20.40
2023-10-18T18:41:20.169Z,20.83
2023-10-18T18:44:08.802Z,21.90
2023-10-18T18:46:55.964Z,21.55
2023-10-18T18:49:41.986Z,20.30
2023-10-18T18:52:28.453Z,21.48
2023-10-18T18:55:19.467Z,21.52
2023-10-18T18:58:14.602Z,20.70
2023-10-18T19:01:03.636Z,21.55
2023-10-18T19:03:50.370Z,22.15
2023-10-18T19:06:36.581Z,22.55
2023-10-18T19:09:24.558Z,21.75
2023-10-18T19:12:11.565Z,22.58
2023-10-18T19:14:58.651Z,21.67
2023-10-18T19:17:48.895Z,21.65
2023-10-18T19:20:34.984Z,23.35
2023-10-18T19:23:21.157Z,24.45
2023-10-18T19:26:13.481Z,23.75
2023-10-18T19:28:59.358Z,22.30
2023-10-18T19:31:46.928Z,22.55
2023-10-18T19:34:33.373Z,23.23
2023-10-18T19:37:20.865Z,24.75
2023-10-18T19:40:08.697Z,24.52
2023-10-18T19:42:54.960Z,23.92
2023-10-18T19:45:40.661Z,24.73
2023-10-18T19:48:31.542Z,24.27
2023-10-18T19:51:17.355Z,23.35
2023-10-18T19:54:04.524Z,24.85
2023-10-18T19:56:50.199Z,24.15
2023-10-18T19:59:35.975Z,24.02
2023-10-18T20:02:21.787Z,23.90
2023-10-18T20:05:07.783Z,24.08
2023-10-18T20:07:54.802Z,24.10
2023-10-18T20:10:41.167Z,25.77
2023-10-18T20:13:30.026Z,24.08
2023-10-18T20:16:16.252Z,24.33
2023-10-18T20:19:03.402Z,24.88
2023-10-18T20:21:53.510Z,24.55
2023-10-18T20:24:39.795Z,25.23
2023-10-18T20:27:25.625Z,24.25
2023-10-18T20:30:13.525Z,25.10
2023-10-18T20:32:59.437Z,26.25
2023-10-18T20:35:46.384Z,25.95
2023-10-18T20:38:35.212Z,25.67
2023-10-18T20:41:24.257Z,25.77
2023-10-18T20:44:20.410Z,25.08
2023-10-18T20:47:16.489Z,26.20
2023-10-18T20:50:25.476Z,26.30
2023-10-18T20:53:19.654Z,26.58
2023-10-18T20:56:10.179Z,26.38
2023-10-18T20:58:59.314Z,27.35
2023-10-18T21:01:47.877Z,26.17
2023-10-18T21:04:34.746Z,25.65
2023-10-18T21:07:27.239Z,27.45
2023-10-18T21:10:16.290Z,26.77
2023-10-18T21:13:02.666Z,25.38
2023-10-18T21:15:48.952Z,25.48
2023-10-18T21:18:38.996Z,26.35
2023-10-18T21:21:24.917Z,24.88
2023-10-18T21:24:12.285Z,25.63
2023-10-18T21:26:58.324Z,27.90
2023-10-18T21:29:44.542Z,26.15
2023-10-18T21:32:31.185Z,24.98
2023-10-18T21:35:17.540Z,27.85
2023-10-18T21:38:03.990Z,27.45
2023-10-18T21:40:50.084Z,27.45
2023-10-18T21:43:36.270Z,27.10
2023-10-18T21:46:22.290Z,26.38
2023-10-18T21:49:08.550Z,27.55
2023-10-18T21:51:54.091Z,27.98
2023-10-18T21:54:40.059Z,26.40
2023-10-18T21:57:27.906Z,26.02
2023-10-18T22:00:37.338Z,25.60
2023-10-18T22:03:27.336Z,25.40
2023-10-18T22:06:17.213Z,28.38
2023-10-18T22:09:23.199Z,25.67
2023-10-18T22:12:10.148Z,27.25
2023-10-18T22:14:55.992Z,26.50
2023-10-18T22:17:47.808Z,28.55
2023-10-18T22:20:39.240Z,27.67
2023-10-18T22:23:25.206Z,25.30
2023-10-18T22:26:15.258Z,25.00
2023-10-18T22:29:02.368Z,26.38
2023-10-18T22:31:52.585Z,26.30
2023-10-18T22:34:43.630Z,27.10
2023-10-18T22:37:30.156Z,26.65
2023-10-18T22:40:16.846Z,27.40
2023-10-18T22:43:04.716Z,27.83
2023-10-18T22:46:06.753Z,27.20
2023-10-18T22:48:55.058Z,25.80
2023-10-18T22:51:46.275Z,27.50
2023-10-18T22:54:44.648Z,28.88
2023-10-18T22:57:37.609Z,27.75
2023-10-18T23:00:33.050Z,27.35
2023-10-18T23:03:21.027Z,28.77
2023-10-18T23:06:11.734Z,28.40
2023-10-18T23:09:07.281Z,28.90
2023-10-18T23:12:00.216Z,28.50
2023-10-18T23:14:55.273Z,29.10
2023-10-18T23:17:43.274Z,27.58
2023-10-18T23:20:35.386Z,28.35
2023-10-18T23:23:22.457Z,27.80
2023-10-18T23:26:27.629Z,28.83
2023-10-18T23:29:16.674Z,29.58
2023-10-18T23:32:11.896Z,29.67
2023-10-18T23:35:19.079Z,29.40
2023-10-18T23:38:18.739Z,28.83
2023-10-18T23:41:05.447Z,29.58
2023-10-18T23:43:51.860Z,28.00
2023-10-18T23:46:57.944Z,28.88
2023-10-18T23:49:46.948Z,29.65
2023-10-18T23:52:37.331Z,27.92
2023-10-18T23:55:40.769Z,28.65
2023-10-18T23:58:30.429Z,29.88
